createdAt,value
2022-09-20T00:03:49.161Z,0.87
2022-09-20T00:18:48.704Z,0.75
2022-09-20T00:33:49.393Z,0.58
2022-09-20T00:48:49.073Z,0.38
2022-09-20T01:03:49.571Z,1.74
2022-09-20T01:18:50.083Z,2.16
2022-09-20T01:33:49.415Z,0.63
2022-09-20T01:48:48.806Z,0.39
2022-09-20T02:03:48.789Z,0.7
2022-09-20T02:18:48.925Z,0.25
2022-09-20T02:33:48.774Z,0.74
2022-09-20T02:48:48.586Z,0.72
2022-09-20T03:03:49.427Z,6.08
2022-09-20T03:18:48.954Z,3.16
2022-09-20T03:33:48.945Z,0.4
2022-09-20T03:48:49.099Z,0.28
2022-09-20T04:03:49.362Z,1.54
2022-09-20T04:33:49.000Z,2.83
2022-09-20T05:03:49.519Z,5.69
2022-09-20T05:48:49.263Z,13.57
2022-09-20T06:03:54.806Z,17.98
2022-09-20T06:19:04.164Z,1.72
2022-09-20T06:48:49.103Z,3.93
2022-09-20T11:04:17.607Z,1.3
2022-09-20T11:18:54.145Z,1.17
2022-09-20T11:33:49.725Z,2.29
2022-09-20T12:03:49.946Z,3.2
2022-09-20T12:18:48.993Z,3.61
2022-09-20T12:33:50.056Z,3.19
2022-09-20T12:48:49.845Z,4.69
2022-09-20T13:03:52.420Z,5.14
2022-09-20T13:18:51.502Z,5.19
2022-09-20T13:33:50.424Z,3.31
2022-09-20T13:48:51.725Z,7.22
2022-09-20T14:18:49.517Z,5.79
2022-09-20T14:33:54.369Z,6.74
2022-09-20T14:48:49.733Z,6.28
2022-09-20T15:03:49.857Z,12.68
2022-09-20T15:18:49.669Z,6.04
2022-09-20T15:33:51.726Z,7.23
2022-09-20T15:48:49.620Z,5.93
2022-09-20T16:03:49.433Z,11.43
2022-09-20T16:18:49.930Z,9.32
2022-09-20T16:33:49.827Z,9.51
